KCID/CID METAR and TAF weather

Enter ICAO airport designator
Station Type Date Time Source
KCID METAR 2019/10/15 08:52 UTC NOAA

KCID 150852Z AUTO 16008KT 10SM OVC070 09/04 A2983 RMK AO2 SLP102 T00940044 58026


Station Type Date Time Source
KCID Decoded METAR 2019/10/15 08:52 UTC NOAA

CEDAR RAPIDS AIRPORT, IA, United States (KCID) 41-53N 91-43W
Oct 15, 2019 - 04:52 AM EDT / 2019.10.15 0852 UTC
Wind: from the SSE (160 degrees) at 9 MPH (8 KT):0
Visibility: 10 mile(s):0
Sky conditions: overcast
Temperature: 48.9 F (9.4 C)
Dew Point: 39.9 F (4.4 C)
Relative Humidity: 70%
Pressure (altimeter): 29.83 in. Hg (1010 hPa)
Pressure tendency: 0.08 inches (2.6 hPa) lower than three hours ago
ob: KCID 150852Z AUTO 16008KT 10SM OVC070 09/04 A2983 RMK AO2 SLP102 T00940044 58026
cycle: 9

Station Type Date Time Source
KCID TAF 2019/10/15 06:30 UTC NOAA

TAF KCID 150528Z 1506/1606 14006KT P6SM SCT250 WS015/21040KT
FM151300 19008KT P6SM SCT080
FM151500 29016G23KT P6SM SCT030
FM152000 31020G30KT P6SM BKN025
FM160000 30017G26KT P6SM OVC020

Example: see airport list